createdAt,value
2022-08-08T00:00:52.464Z,15.05
2022-08-08T00:02:50.062Z,15.02
2022-08-08T00:05:43.695Z,14.94
2022-08-08T00:08:27.309Z,14.91
2022-08-08T00:11:07.921Z,14.91
2022-08-08T00:14:17.186Z,14.87
2022-08-08T00:16:44.869Z,14.80
2022-08-08T00:19:19.785Z,14.76
2022-08-08T00:21:52.540Z,14.70
2022-08-08T00:24:30.073Z,14.64
2022-08-08T00:27:05.974Z,14.57
2022-08-08T00:29:45.203Z,14.54
2022-08-08T00:32:35.276Z,14.54
2022-08-08T00:35:30.252Z,14.56
2022-08-08T00:38:52.156Z,14.54
2022-08-08T00:42:09.201Z,14.54
2022-08-08T00:45:29.465Z,14.46
2022-08-08T00:48:34.143Z,14.43
2022-08-08T00:51:38.357Z,14.39
2022-08-08T00:55:00.746Z,14.34
2022-08-08T00:58:17.207Z,14.30
2022-08-08T01:01:03.533Z,14.29
2022-08-08T01:04:05.479Z,14.25
2022-08-08T01:07:54.840Z,14.21
2022-08-08T01:11:26.894Z,14.16
2022-08-08T01:14:54.291Z,14.12
2022-08-08T01:18:53.298Z,12.54
2022-08-08T01:22:23.568Z,13.86
2022-08-08T01:25:40.169Z,14.10
2022-08-08T01:28:36.872Z,14.13
2022-08-08T01:32:21.750Z,14.04
2022-08-08T01:35:48.605Z,13.93
2022-08-08T01:38:58.902Z,13.93
2022-08-08T01:41:52.614Z,13.95
2022-08-08T01:44:43.658Z,13.90
2022-08-08T01:48:16.830Z,13.88
2022-08-08T01:50:38.425Z,13.85
2022-08-08T01:55:17.005Z,13.81
2022-08-08T01:56:34.144Z,13.76
2022-08-08T01:59:38.225Z,13.71
2022-08-08T02:02:39.939Z,13.68
2022-08-08T02:05:24.976Z,13.62
2022-08-08T02:08:16.687Z,13.52
2022-08-08T02:11:02.692Z,13.46
2022-08-08T02:13:52.562Z,13.46
2022-08-08T02:16:30.593Z,13.47
2022-08-08T02:19:26.665Z,13.45
2022-08-08T02:22:28.435Z,13.45
2022-08-08T02:25:16.563Z,12.12
2022-08-08T02:27:58.724Z,13.35
2022-08-08T02:30:49.751Z,13.29
2022-08-08T02:34:08.170Z,13.21
2022-08-08T02:37:00.021Z,13.21
2022-08-08T02:39:59.920Z,13.21
2022-08-08T02:44:38.062Z,13.04
2022-08-08T02:46:50.645Z,13.07
2022-08-08T02:50:18.049Z,13.13
2022-08-08T02:53:14.529Z,13.09
2022-08-08T02:56:24.436Z,13.04
2022-08-08T02:59:58.544Z,13.00
2022-08-08T03:03:15.009Z,12.91
2022-08-08T03:06:46.472Z,12.81
2022-08-08T03:10:32.579Z,12.75
2022-08-08T03:15:53.685Z,12.68
2022-08-08T03:16:35.314Z,12.63
2022-08-08T03:19:33.472Z,12.59
2022-08-08T03:22:04.241Z,12.56
2022-08-08T03:24:58.742Z,12.50
2022-08-08T03:27:35.824Z,12.49
2022-08-08T03:30:15.247Z,12.47
2022-08-08T03:33:07.546Z,12.43
2022-08-08T03:36:01.541Z,12.42
2022-08-08T03:38:58.299Z,12.41
2022-08-08T03:42:13.258Z,12.42
2022-08-08T03:44:11.667Z,12.42
2022-08-08T03:46:55.539Z,12.42
2022-08-08T03:50:00.021Z,12.43
2022-08-08T03:52:23.847Z,12.45
2022-08-08T03:55:09.753Z,12.46
2022-08-08T03:58:31.632Z,12.45
2022-08-08T04:00:56.506Z,12.45
2022-08-08T04:03:57.949Z,12.48
2022-08-08T04:06:37.733Z,12.51
2022-08-08T04:10:00.822Z,12.57
2022-08-08T04:12:25.731Z,12.66
2022-08-08T04:14:57.526Z,12.76
2022-08-08T04:17:45.714Z,12.80
2022-08-08T04:20:16.051Z,12.87
2022-08-08T04:22:51.586Z,12.92
2022-08-08T04:25:21.938Z,12.95
2022-08-08T04:28:35.430Z,13.01
2022-08-08T04:30:50.621Z,13.11
2022-08-08T04:33:24.267Z,12.73
2022-08-08T04:35:56.218Z,13.29
2022-08-08T04:38:27.533Z,13.36
2022-08-08T04:41:05.059Z,13.43
2022-08-08T04:43:46.136Z,13.50
2022-08-08T04:46:22.561Z,13.59
2022-08-08T04:49:06.507Z,13.69
2022-08-08T04:51:55.414Z,13.77
2022-08-08T04:54:40.110Z,13.88
2022-08-08T04:57:14.151Z,13.98
2022-08-08T04:59:45.216Z,14.09
2022-08-08T05:02:20.078Z,14.17
2022-08-08T05:04:49.232Z,14.26
2022-08-08T05:07:18.699Z,14.38
2022-08-08T05:09:47.840Z,14.53
2022-08-08T05:12:20.864Z,14.75
2022-08-08T05:15:05.737Z,14.96
2022-08-08T05:17:54.316Z,15.14
2022-08-08T05:20:32.920Z,15.37
2022-08-08T05:23:02.497Z,15.60
2022-08-08T05:25:40.536Z,15.81
2022-08-08T05:28:11.082Z,15.99
2022-08-08T05:30:48.901Z,16.16
2022-08-08T05:33:44.024Z,16.32
2022-08-08T05:36:27.970Z,16.49
2022-08-08T05:38:59.670Z,16.59
2022-08-08T05:41:28.541Z,16.67
2022-08-08T05:44:05.063Z,16.78
2022-08-08T05:46:39.979Z,16.91
2022-08-08T05:49:18.990Z,17.02
2022-08-08T05:51:53.940Z,17.11
2022-08-08T05:54:50.419Z,17.18
2022-08-08T05:58:05.439Z,17.28
2022-08-08T06:00:25.170Z,17.37
2022-08-08T06:03:25.481Z,17.46
2022-08-08T06:06:07.850Z,17.53
2022-08-08T06:08:53.110Z,17.62
2022-08-08T06:11:28.348Z,17.68
2022-08-08T06:14:00.401Z,17.69
2022-08-08T06:16:30.330Z,17.76
2022-08-08T06:19:35.379Z,17.82
2022-08-08T06:25:03.715Z,17.93
2022-08-08T06:27:43.725Z,18.04
2022-08-08T06:30:19.979Z,18.09
2022-08-08T06:33:03.073Z,17.44
2022-08-08T06:36:06.925Z,18.24
2022-08-08T06:38:39.414Z,18.35
2022-08-08T06:41:13.403Z,18.48
2022-08-08T06:43:57.183Z,18.57
2022-08-08T06:46:32.054Z,18.66
2022-08-08T06:49:02.913Z,18.79
2022-08-08T06:51:47.196Z,18.87
2022-08-08T06:54:36.081Z,18.94
2022-08-08T06:57:10.842Z,18.99
2022-08-08T07:00:10.883Z,19.04
2022-08-08T07:02:47.517Z,19.17
2022-08-08T07:05:20.255Z,19.29
2022-08-08T07:08:04.640Z,19.42
2022-08-08T07:10:47.595Z,19.57
2022-08-08T07:13:19.293Z,19.66
2022-08-08T07:16:06.115Z,19.79
2022-08-08T07:18:55.918Z,19.88
2022-08-08T07:21:37.566Z,19.93
2022-08-08T07:24:11.251Z,19.96
2022-08-08T07:26:55.315Z,20.04
2022-08-08T07:29:58.911Z,20.11
2022-08-08T07:32:22.244Z,20.22
2022-08-08T07:35:00.223Z,20.33
2022-08-08T07:37:55.996Z,20.42
2022-08-08T07:40:28.814Z,20.58
2022-08-08T07:43:09.599Z,20.67
2022-08-08T07:46:17.822Z,20.75
2022-08-08T07:48:49.146Z,20.85
2022-08-08T07:51:45.100Z,20.98
2022-08-08T07:54:44.965Z,21.25
2022-08-08T07:57:36.241Z,21.31
2022-08-08T08:00:20.940Z,21.32
2022-08-08T08:03:11.127Z,21.33
2022-08-08T08:05:50.822Z,21.39
2022-08-08T08:08:30.169Z,21.46
2022-08-08T08:11:00.988Z,21.46
2022-08-08T08:14:07.817Z,21.45
2022-08-08T08:16:32.133Z,21.46
2022-08-08T08:19:23.585Z,21.55
2022-08-08T08:22:07.865Z,21.61
2022-08-08T08:24:47.766Z,21.84
2022-08-08T08:27:24.502Z,21.94
2022-08-08T08:30:10.778Z,21.96
2022-08-08T08:32:51.412Z,22.08
2022-08-08T08:35:30.061Z,22.12
2022-08-08T08:38:22.078Z,22.27
2022-08-08T08:41:23.879Z,22.28
2022-08-08T08:44:13.979Z,22.23
2022-08-08T08:47:00.283Z,22.31
2022-08-08T08:49:42.981Z,22.33
2022-08-08T08:52:20.556Z,22.36
2022-08-08T08:55:01.753Z,22.71
2022-08-08T08:57:35.748Z,22.86
2022-08-08T09:00:14.754Z,22.85
2022-08-08T09:02:52.778Z,22.77
2022-08-08T09:05:49.051Z,22.96
2022-08-08T09:08:24.199Z,23.00
2022-08-08T09:11:18.464Z,22.99
2022-08-08T09:13:48.700Z,23.08
2022-08-08T09:16:28.834Z,23.17
2022-08-08T09:19:06.652Z,23.26
2022-08-08T09:21:58.689Z,23.33
2022-08-08T09:24:43.890Z,23.50
2022-08-08T09:27:42.172Z,23.61
2022-08-08T09:30:17.877Z,23.72
2022-08-08T09:33:12.805Z,23.82
2022-08-08T09:35:50.906Z,24.03
2022-08-08T09:39:10.026Z,24.29
2022-08-08T09:42:20.565Z,24.28
2022-08-08T09:45:15.274Z,24.32
2022-08-08T09:48:10.097Z,24.64
2022-08-08T09:50:50.458Z,25.18
2022-08-08T09:54:03.336Z,25.63
2022-08-08T09:56:41.438Z,25.80
2022-08-08T10:00:01.855Z,25.70
2022-08-08T10:02:37.896Z,25.46
2022-08-08T10:05:22.803Z,25.33
2022-08-08T10:08:00.504Z,24.79
2022-08-08T10:10:32.464Z,24.76
2022-08-08T10:13:06.213Z,24.57
2022-08-08T10:15:59.064Z,24.67
2022-08-08T10:18:32.868Z,24.94
2022-08-08T10:21:08.252Z,25.29
2022-08-08T10:23:58.367Z,25.34
2022-08-08T10:26:56.626Z,25.67
2022-08-08T10:29:25.041Z,25.92
2022-08-08T10:32:17.650Z,25.29
2022-08-08T10:35:01.335Z,25.02
2022-08-08T10:37:31.833Z,24.66
2022-08-08T10:40:16.188Z,23.02
2022-08-08T10:42:48.640Z,24.76
2022-08-08T10:45:19.009Z,24.79
2022-08-08T10:47:55.823Z,24.65
2022-08-08T10:50:33.132Z,24.71
2022-08-08T10:53:12.740Z,24.75
2022-08-08T10:55:46.758Z,24.87
2022-08-08T10:58:16.183Z,24.83
2022-08-08T11:00:48.450Z,24.85
2022-08-08T11:03:52.391Z,24.83
2022-08-08T11:06:12.656Z,24.71
2022-08-08T11:08:49.974Z,24.75
2022-08-08T11:12:00.060Z,24.89
2022-08-08T11:14:16.094Z,24.94
2022-08-08T11:16:48.520Z,24.91
2022-08-08T11:19:19.595Z,24.98
2022-08-08T11:21:55.447Z,25.06
2022-08-08T11:24:29.142Z,25.19
2022-08-08T11:27:10.285Z,25.26
2022-08-08T11:29:58.276Z,25.42
2022-08-08T11:32:42.558Z,25.70
2022-08-08T11:35:27.740Z,25.91
2022-08-08T11:38:39.129Z,25.85
2022-08-08T11:40:56.213Z,26.08
2022-08-08T11:43:39.131Z,26.33
2022-08-08T11:46:13.801Z,26.51
2022-08-08T11:48:49.631Z,26.81
2022-08-08T11:51:38.817Z,27.17
2022-08-08T11:54:26.666Z,27.45
2022-08-08T11:57:13.926Z,27.54
2022-08-08T12:00:01.081Z,27.49
2022-08-08T12:02:48.901Z,27.23
2022-08-08T12:05:33.517Z,26.58
2022-08-08T12:08:04.280Z,25.89
2022-08-08T12:10:34.016Z,25.54
2022-08-08T12:13:05.660Z,25.54
2022-08-08T12:15:41.838Z,25.52
2022-08-08T12:18:20.670Z,25.49
2022-08-08T12:20:53.328Z,25.56
2022-08-08T12:23:40.045Z,25.77
2022-08-08T12:26:17.334Z,25.90
2022-08-08T12:28:58.798Z,26.16
2022-08-08T12:31:39.306Z,26.65
2022-08-08T12:34:36.239Z,27.10
2022-08-08T12:37:08.811Z,27.53
2022-08-08T12:40:00.386Z,27.82
2022-08-08T12:42:33.587Z,27.94
2022-08-08T12:45:19.887Z,27.85
2022-08-08T12:48:10.456Z,27.83
2022-08-08T12:50:58.465Z,27.65
2022-08-08T12:53:37.597Z,27.46
2022-08-08T12:56:19.153Z,27.11
2022-08-08T12:58:55.265Z,26.98
2022-08-08T13:01:37.611Z,26.97
2022-08-08T13:04:24.581Z,26.97
2022-08-08T13:06:56.527Z,26.43
2022-08-08T13:09:57.614Z,26.63
2022-08-08T13:12:29.705Z,26.80
2022-08-08T13:15:02.463Z,26.70
2022-08-08T13:18:10.169Z,27.03
2022-08-08T13:20:27.226Z,27.54
2022-08-08T13:25:50.031Z,28.79
2022-08-08T13:28:33.161Z,29.39
2022-08-08T13:31:03.983Z,29.67
2022-08-08T13:33:41.950Z,29.78
2022-08-08T13:36:12.664Z,29.09
2022-08-08T13:38:45.981Z,29.02
2022-08-08T13:41:17.452Z,28.94
2022-08-08T13:43:50.712Z,27.72
2022-08-08T13:46:26.995Z,27.78
2022-08-08T13:49:12.241Z,27.26
2022-08-08T13:52:02.700Z,27.69
2022-08-08T13:54:49.343Z,27.97
2022-08-08T13:58:07.390Z,27.83
2022-08-08T14:00:52.873Z,28.45
2022-08-08T14:03:53.316Z,28.79
2022-08-08T14:06:33.206Z,28.90
2022-08-08T14:09:24.379Z,29.44
2022-08-08T14:12:02.886Z,29.82
2022-08-08T14:14:42.962Z,29.90
2022-08-08T14:17:58.326Z,29.56
2022-08-08T14:20:56.957Z,28.90
2022-08-08T14:23:10.192Z,29.62
2022-08-08T14:25:53.969Z,29.59
2022-08-08T14:28:28.905Z,28.88
2022-08-08T14:31:23.289Z,28.73
2022-08-08T14:34:23.221Z,29.36
2022-08-08T14:36:59.249Z,29.86
2022-08-08T14:39:48.925Z,29.74
2022-08-08T14:42:28.584Z,29.03
2022-08-08T14:45:18.436Z,28.66
2022-08-08T14:48:03.180Z,29.15
2022-08-08T14:50:38.767Z,29.68
2022-08-08T14:53:17.555Z,29.50
2022-08-08T14:55:46.415Z,29.78
2022-08-08T14:58:33.497Z,30.34
2022-08-08T15:01:09.855Z,30.69
2022-08-08T15:04:20.058Z,30.22
2022-08-08T15:06:55.287Z,29.40
2022-08-08T15:09:25.928Z,29.07
2022-08-08T15:11:59.369Z,29.16
2022-08-08T15:14:30.793Z,29.47
2022-08-08T15:17:02.983Z,29.00
2022-08-08T15:19:36.493Z,28.76
2022-08-08T15:22:07.819Z,28.78
2022-08-08T15:24:41.896Z,28.83
2022-08-08T15:27:20.006Z,29.07
2022-08-08T15:30:02.386Z,29.12
2022-08-08T15:32:37.036Z,28.61
2022-08-08T15:35:10.179Z,28.13
2022-08-08T15:37:42.764Z,28.29
2022-08-08T15:40:17.732Z,28.24
2022-08-08T15:42:49.611Z,28.67
2022-08-08T15:45:22.934Z,29.03
2022-08-08T15:48:15.682Z,29.15
2022-08-08T15:51:15.553Z,28.95
2022-08-08T15:53:50.595Z,28.75
2022-08-08T15:56:20.425Z,28.79
2022-08-08T15:58:54.407Z,28.57
2022-08-08T16:01:25.037Z,28.18
2022-08-08T16:04:10.947Z,27.65
2022-08-08T16:06:58.794Z,27.37
2022-08-08T16:13:10.008Z,26.93
2022-08-08T16:13:28.300Z,27.09
2022-08-08T16:15:17.497Z,27.54
2022-08-08T16:18:06.775Z,27.62
2022-08-08T16:20:37.003Z,27.37
2022-08-08T16:23:07.737Z,27.04
2022-08-08T16:25:52.530Z,26.87
2022-08-08T16:28:36.322Z,26.77
2022-08-08T16:31:08.173Z,27.08
2022-08-08T16:33:40.762Z,26.84
2022-08-08T16:36:15.718Z,26.73
2022-08-08T16:38:53.896Z,26.81
2022-08-08T16:41:28.066Z,26.93
2022-08-08T16:44:02.871Z,26.87
2022-08-08T16:46:43.197Z,26.65
2022-08-08T16:49:15.175Z,26.74
2022-08-08T16:55:01.631Z,26.87
2022-08-08T16:55:01.763Z,26.81
2022-08-08T16:58:13.930Z,26.66
2022-08-08T17:00:26.879Z,26.52
2022-08-08T17:02:56.168Z,26.50
2022-08-08T17:05:42.425Z,26.43
2022-08-08T17:08:26.269Z,26.30
2022-08-08T17:11:10.435Z,26.15
2022-08-08T17:13:50.247Z,26.09
2022-08-08T17:16:29.840Z,26.04
2022-08-08T17:19:01.822Z,26.04
2022-08-08T17:21:44.712Z,26.05
2022-08-08T17:24:27.912Z,26.02
2022-08-08T17:27:04.614Z,25.93
2022-08-08T17:29:36.563Z,25.79
2022-08-08T17:32:16.519Z,25.93
2022-08-08T17:35:54.662Z,26.12
2022-08-08T17:39:05.407Z,26.09
2022-08-08T17:41:02.301Z,25.90
2022-08-08T17:44:35.836Z,25.75
2022-08-08T17:47:24.145Z,25.61
2022-08-08T17:50:01.352Z,25.54
2022-08-08T17:52:49.797Z,25.47
2022-08-08T17:56:04.873Z,25.42
2022-08-08T17:58:21.516Z,25.32
2022-08-08T18:01:01.335Z,25.20
2022-08-08T18:08:01.092Z,25.10
2022-08-08T18:10:12.762Z,25.05
2022-08-08T18:15:39.728Z,24.92
2022-08-08T18:18:50.666Z,24.75
2022-08-08T18:22:00.596Z,24.58
2022-08-08T18:24:33.209Z,24.41
2022-08-08T18:27:17.303Z,24.21
2022-08-08T18:30:09.995Z,23.99
2022-08-08T18:33:36.895Z,23.80
2022-08-08T18:36:46.771Z,23.52
2022-08-08T18:39:47.085Z,23.25
2022-08-08T18:42:56.162Z,23.01
2022-08-08T18:45:44.776Z,22.91
2022-08-08T18:48:52.863Z,22.82
2022-08-08T18:51:53.351Z,22.71
2022-08-08T18:54:58.962Z,22.56
2022-08-08T18:57:36.984Z,22.38
2022-08-08T19:00:26.042Z,22.19
2022-08-08T19:03:09.151Z,22.00
2022-08-08T19:05:53.246Z,21.88
2022-08-08T19:08:36.262Z,21.75
2022-08-08T19:12:26.570Z,21.63
2022-08-08T19:15:04.846Z,21.48
2022-08-08T19:17:47.907Z,21.32
2022-08-08T19:20:53.370Z,21.16
2022-08-08T19:23:39.088Z,21.04
2022-08-08T19:26:31.347Z,20.91
2022-08-08T19:29:20.596Z,20.81
2022-08-08T19:35:12.255Z,20.62
2022-08-08T19:38:02.087Z,20.49
2022-08-08T19:40:34.110Z,20.36
2022-08-08T19:43:11.878Z,20.29
2022-08-08T19:45:58.128Z,20.32
2022-08-08T19:48:31.691Z,20.27
2022-08-08T19:51:08.117Z,20.18
2022-08-08T19:53:53.340Z,20.08
2022-08-08T19:56:25.939Z,19.95
2022-08-08T19:59:08.597Z,19.85
2022-08-08T20:02:02.120Z,19.75
2022-08-08T20:04:33.383Z,19.63
2022-08-08T20:08:29.519Z,19.54
2022-08-08T20:09:59.082Z,19.45
2022-08-08T20:12:35.496Z,19.46
2022-08-08T20:15:17.059Z,19.42
2022-08-08T20:17:50.682Z,19.36
2022-08-08T20:20:31.296Z,19.24
2022-08-08T20:23:00.307Z,19.17
2022-08-08T20:25:36.603Z,19.10
2022-08-08T20:28:16.048Z,19.04
2022-08-08T20:30:55.740Z,18.98
2022-08-08T20:33:27.107Z,18.97
2022-08-08T20:36:22.215Z,18.97
2022-08-08T20:38:58.673Z,18.99
2022-08-08T20:41:29.643Z,18.97
2022-08-08T20:44:02.878Z,18.95
2022-08-08T20:46:34.459Z,18.87
2022-08-08T20:49:10.725Z,18.81
2022-08-08T20:51:41.859Z,18.76
2022-08-08T20:54:15.651Z,18.68
2022-08-08T20:57:03.979Z,18.59
2022-08-08T20:59:44.155Z,18.47
2022-08-08T21:02:25.413Z,18.34
2022-08-08T21:05:00.312Z,18.29
2022-08-08T21:07:47.940Z,18.24
2022-08-08T21:11:15.180Z,18.13
2022-08-08T21:13:47.604Z,18.04
2022-08-08T21:16:29.064Z,17.99
2022-08-08T21:18:58.154Z,17.93
2022-08-08T21:21:39.956Z,17.93
2022-08-08T21:24:25.576Z,17.91
2022-08-08T21:26:59.578Z,17.91
2022-08-08T21:30:02.652Z,17.91
2022-08-08T21:32:25.110Z,17.86
2022-08-08T21:34:56.898Z,17.84
2022-08-08T21:37:54.417Z,17.82
2022-08-08T21:40:31.190Z,17.83
2022-08-08T21:43:00.838Z,17.88
2022-08-08T21:45:44.594Z,17.92
2022-08-08T21:48:35.381Z,18.01
2022-08-08T21:51:11.216Z,18.01
2022-08-08T21:54:31.632Z,18.00
2022-08-08T21:56:41.972Z,17.98
2022-08-08T21:59:12.936Z,17.98
2022-08-08T22:01:44.577Z,17.93
2022-08-08T22:04:21.853Z,17.88
2022-08-08T22:06:53.909Z,17.82
2022-08-08T22:09:26.899Z,17.79
2022-08-08T22:12:09.691Z,17.73
2022-08-08T22:14:43.681Z,17.66
2022-08-08T22:17:17.115Z,17.57
2022-08-08T22:20:12.399Z,17.50
2022-08-08T22:22:37.990Z,17.39
2022-08-08T22:25:12.346Z,17.35
2022-08-08T22:28:03.600Z,17.32
2022-08-08T22:30:33.938Z,17.29
2022-08-08T22:33:09.218Z,17.26
2022-08-08T22:36:05.178Z,17.24
2022-08-08T22:38:48.916Z,17.23
2022-08-08T22:41:21.220Z,17.23
2022-08-08T22:44:02.265Z,17.20
2022-08-08T22:46:38.975Z,17.16
2022-08-08T22:49:09.390Z,17.10
2022-08-08T22:51:42.883Z,17.01
2022-08-08T22:54:32.497Z,16.92
2022-08-08T22:57:08.673Z,16.84
2022-08-08T22:59:48.319Z,16.76
2022-08-08T23:02:29.158Z,16.69
2022-08-08T23:05:02.115Z,16.61
2022-08-08T23:07:51.865Z,16.52
2022-08-08T23:10:25.391Z,16.49
2022-08-08T23:12:56.857Z,16.56
2022-08-08T23:16:38.912Z,16.55
2022-08-08T23:18:14.777Z,16.40
2022-08-08T23:20:44.563Z,16.28
2022-08-08T23:23:23.382Z,16.15
2022-08-08T23:25:52.809Z,16.09
2022-08-08T23:28:26.610Z,16.07
2022-08-08T23:31:51.740Z,16.16
2022-08-08T23:34:20.791Z,15.75
2022-08-08T23:36:57.950Z,16.26
2022-08-08T23:39:32.417Z,16.27
2022-08-08T23:42:11.266Z,16.23
2022-08-08T23:44:41.468Z,16.15
2022-08-08T23:49:02.368Z,16.08
2022-08-08T23:50:05.738Z,15.99
2022-08-08T23:52:35.054Z,15.91
2022-08-08T23:55:14.223Z,15.92
2022-08-08T23:57:52.480Z,15.87
